Kaisei Maru — JD3114 — position and weather

sailwx.info

Track history (hours):
 
Tides and Currents Weather Stations Pressure Air Temp Water Temp Dewpoint Dewpoint Depression Visibility Wind Speed Wind Dir Waves Ship Positions

Kaisei Maru

Last reported at 2016-Dec-02 11:08 UTC. Time now 2016-Dec-03 19:47 UTC.
Position N 34°37' E 134°55'.

Length 52 m; draft 2.8 m.

Type: Tanker. MMSI: 431001837.

Date/timePositionNaut miles runAvg speedWind from/ knotsBaromVisibWave heightAir tempDewpointWater temp
2016-Dec-02 11:08N 34°37' E 134°55'711.0
2016-Dec-02 10:31N 34°36' E 135°03'9 9.2
2016-Dec-02 09:33N 34°41' E 135°12'0 0.0
2016-Dec-02 08:33N 34°41' E 135°12'0 0.0
2016-Dec-02 07:33N 34°41' E 135°12'0 0.0
2016-Dec-02 06:33N 34°41' E 135°12'0 0.0
2016-Dec-02 05:33N 34°41' E 135°12'0 0.0
2016-Dec-02 04:33N 34°41' E 135°12'0 0.1
2016-Dec-02 03:33N 34°41' E 135°12'10 9.6
2016-Dec-02 02:33N 34°42' E 135°24'0 0.4
2016-Dec-02 01:32N 34°42' E 135°23'0 0.0
2016-Dec-02 00:33N 34°42' E 135°23'0 0.0
2016-Dec-01 23:33N 34°42' E 135°23'1 1.0
2016-Dec-01 22:33N 34°41' E 135°23'0 0.0
2016-Dec-01 21:33N 34°41' E 135°23'0 0.0
2016-Dec-01 20:33N 34°41' E 135°23'0 0.0
2016-Dec-01 19:33N 34°41' E 135°23'0 0.0
2016-Dec-01 18:33N 34°41' E 135°23'2 2.1
2016-Dec-01 17:33N 34°40' E 135°21'10 9.8
2016-Dec-01 16:33N 34°32' E 135°15'10 9.6
2016-Dec-01 15:31N 34°23' E 135°08'9 8.9
2016-Dec-01 14:29N 34°15' E 135°03'9 9.5
2016-Dec-01 13:33N 34°06' E 135°03'242 8.1
2016-Nov-30 07:31N 35°13' E 139°46'9 9.8
2016-Nov-30 06:33N 35°22' E 139°42'9 9.4
2016-Nov-30 05:33N 35°30' E 139°47'2 2.0
2016-Nov-30 04:33N 35°31' E 139°45'0 0.0
2016-Nov-30 03:33N 35°31' E 139°45'0 0.0
2016-Nov-30 02:33N 35°31' E 139°45'0 0.0
2016-Nov-30 01:33N 35°31' E 139°45'0 0.0
2016-Nov-30 00:33N 35°31' E 139°45'0 0.0
2016-Nov-29 23:33N 35°31' E 139°45'0 0.0
2016-Nov-29 22:33N 35°31' E 139°45'0 0.0
2016-Nov-29 21:33N 35°31' E 139°45'0 0.0
2016-Nov-29 20:33N 35°31' E 139°45'0 0.0
2016-Nov-29 19:33N 35°31' E 139°45'0 0.0
2016-Nov-29 18:33N 35°31' E 139°45'0 0.0
2016-Nov-29 17:33N 35°31' E 139°45'0 0.0
2016-Nov-29 16:33N 35°31' E 139°45'0 0.0
2016-Nov-29 15:33N 35°31' E 139°45'0 0.0
2016-Nov-29 14:33N 35°31' E 139°45'0 0.0
2016-Nov-29 13:33N 35°31' E 139°45'0 0.0
2016-Nov-29 12:33N 35°31' E 139°45'0 0.0
2016-Nov-29 11:33N 35°31' E 139°45'0 0.0
2016-Nov-29 10:33N 35°31' E 139°45'0 0.0
2016-Nov-29 09:33N 35°31' E 139°45'0 0.0
2016-Nov-29 08:33N 35°31' E 139°45'0 0.0
2016-Nov-29 07:33N 35°31' E 139°45'0 0.0
2016-Nov-29 06:33N 35°31' E 139°45'0 0.0
2016-Nov-29 05:33N 35°31' E 139°45'0 0.0
2016-Nov-29 04:33N 35°31' E 139°45'0 0.0
2016-Nov-29 03:33N 35°31' E 139°45'0 0.0
2016-Nov-29 02:33N 35°31' E 139°45'0 0.0
2016-Nov-29 01:33N 35°31' E 139°45'0 0.0
2016-Nov-29 00:33N 35°31' E 139°45'0 0.0
2016-Nov-28 23:33N 35°31' E 139°45'0 0.0
2016-Nov-28 22:33N 35°31' E 139°45'0 0.0
2016-Nov-28 21:33N 35°31' E 139°45'0 0.0
2016-Nov-28 20:33N 35°31' E 139°45'0 0.0
2016-Nov-28 19:33N 35°31' E 139°45'0 0.0
2016-Nov-28 18:33N 35°31' E 139°45'0 0.0
2016-Nov-28 17:33N 35°31' E 139°45'0 0.0
2016-Nov-28 16:33N 35°31' E 139°45'0 0.0
2016-Nov-28 15:33N 35°31' E 139°45'0 0.0
2016-Nov-28 14:33N 35°31' E 139°45'0 0.0
2016-Nov-28 13:33N 35°31' E 139°45'0 0.0
2016-Nov-28 12:33N 35°31' E 139°45'0 0.0
2016-Nov-28 11:33N 35°31' E 139°45'0 0.0
2016-Nov-28 10:33N 35°31' E 139°45'0 0.0
2016-Nov-28 09:33N 35°31' E 139°45'0 0.0
2016-Nov-28 08:33N 35°31' E 139°45'3 2.8
2016-Nov-28 07:33N 35°29' E 139°42'2 1.7
2016-Nov-28 06:33N 35°29' E 139°40'0 0.0
2016-Nov-28 05:33N 35°29' E 139°40'0 0.0
2016-Nov-28 04:33N 35°29' E 139°40'1 0.5
2016-Nov-28 03:34N 35°29' E 139°40'3 3.2
2016-Nov-28 02:33N 35°26' E 139°43'0 0.0
2016-Nov-28 01:33N 35°26' E 139°43'0 0.0
2016-Nov-28 00:33N 35°26' E 139°43'0 0.0
2016-Nov-27 23:33N 35°26' E 139°43'0 0.0
2016-Nov-27 22:33N 35°26' E 139°43'0 0.0
2016-Nov-27 21:33N 35°26' E 139°43'0 0.0
2016-Nov-27 20:33N 35°26' E 139°43'0 0.1
2016-Nov-27 19:33N 35°26' E 139°43'9 8.9
2016-Nov-27 18:33N 35°18' E 139°45'243 7.8
2016-Nov-26 11:31N 34°06' E 135°02'1010.4
2016-Nov-26 10:32N 34°16' E 135°03'10 9.9
2016-Nov-26 09:32N 34°25' E 135°09'1010.1
2016-Nov-26 08:33N 34°33' E 135°16'1010.1
2016-Nov-26 07:33N 34°41' E 135°23'2 1.6
2016-Nov-26 06:33N 34°42' E 135°24'0 0.0
2016-Nov-26 05:33N 34°42' E 135°24'0 0.0
2016-Nov-26 04:33N 34°42' E 135°24'0 0.0
2016-Nov-26 03:33N 34°42' E 135°24'0 0.0
2016-Nov-26 02:33N 34°42' E 135°24'0 0.0
2016-Nov-26 01:33N 34°42' E 135°24'0 0.0
2016-Nov-26 00:33N 34°42' E 135°24'0 0.0
2016-Nov-25 23:33N 34°42' E 135°24'3 2.9
2016-Nov-25 22:33N 34°41' E 135°21'7 7.4
2016-Nov-25 21:33N 34°41' E 135°12'0 0.0
2016-Nov-25 20:33N 34°41' E 135°12'0 0.0
2016-Nov-25 19:33N 34°41' E 135°12'0 0.0
2016-Nov-25 18:33N 34°41' E 135°12'0 0.0
2016-Nov-25 17:33N 34°41' E 135°12'0 0.0
2016-Nov-25 16:33N 34°41' E 135°12'0 0.0
2016-Nov-25 15:33N 34°41' E 135°12'0 0.0
2016-Nov-25 14:33N 34°41' E 135°12'0 0.0
2016-Nov-25 13:33N 34°41' E 135°12'0 0.0
2016-Nov-25 12:33N 34°41' E 135°12'0 0.0
2016-Nov-25 11:33N 34°41' E 135°12'0 0.1
2016-Nov-25 10:33N 34°41' E 135°12'6 5.9
2016-Nov-25 09:33N 34°36' E 135°15'1111.1
2016-Nov-25 08:33N 34°26' E 135°08'1511.4
2016-Nov-25 07:12N 34°13' E 134°58'  
Track history (hours):
 
Tides and Currents Weather Stations Pressure Air Temp Water Temp Dewpoint Dewpoint Depression Visibility Wind Speed Wind Dir Waves Ship Positions

Kaisei Maru

Last reported at 2016-Dec-02 11:08 UTC. Time now 2016-Dec-03 19:47 UTC.
Position N 34°37' E 134°55'.

Length 52 m; draft 2.8 m.

Type: Tanker. MMSI: 431001837.

Date/timePositionNaut miles runAvg speedWind from/ knotsBaromVisibWave heightAir tempDewpointWater temp
2016-Dec-02 11:08N 34°37' E 134°55'711.0
2016-Dec-02 10:31N 34°36' E 135°03'9 9.2
2016-Dec-02 09:33N 34°41' E 135°12'0 0.0
2016-Dec-02 08:33N 34°41' E 135°12'0 0.0
2016-Dec-02 07:33N 34°41' E 135°12'0 0.0
2016-Dec-02 06:33N 34°41' E 135°12'0 0.0
2016-Dec-02 05:33N 34°41' E 135°12'0 0.0
2016-Dec-02 04:33N 34°41' E 135°12'0 0.1
2016-Dec-02 03:33N 34°41' E 135°12'10 9.6
2016-Dec-02 02:33N 34°42' E 135°24'0 0.4
2016-Dec-02 01:32N 34°42' E 135°23'0 0.0
2016-Dec-02 00:33N 34°42' E 135°23'0 0.0
2016-Dec-01 23:33N 34°42' E 135°23'1 1.0
2016-Dec-01 22:33N 34°41' E 135°23'0 0.0
2016-Dec-01 21:33N 34°41' E 135°23'0 0.0
2016-Dec-01 20:33N 34°41' E 135°23'0 0.0
2016-Dec-01 19:33N 34°41' E 135°23'0 0.0
2016-Dec-01 18:33N 34°41' E 135°23'2 2.1
2016-Dec-01 17:33N 34°40' E 135°21'10 9.8
2016-Dec-01 16:33N 34°32' E 135°15'10 9.6
2016-Dec-01 15:31N 34°23' E 135°08'9 8.9
2016-Dec-01 14:29N 34°15' E 135°03'9 9.5
2016-Dec-01 13:33N 34°06' E 135°03'242 8.1
2016-Nov-30 07:31N 35°13' E 139°46'9 9.8
2016-Nov-30 06:33N 35°22' E 139°42'9 9.4
2016-Nov-30 05:33N 35°30' E 139°47'2 2.0
2016-Nov-30 04:33N 35°31' E 139°45'0 0.0
2016-Nov-30 03:33N 35°31' E 139°45'0 0.0
2016-Nov-30 02:33N 35°31' E 139°45'0 0.0
2016-Nov-30 01:33N 35°31' E 139°45'0 0.0
2016-Nov-30 00:33N 35°31' E 139°45'0 0.0
2016-Nov-29 23:33N 35°31' E 139°45'0 0.0
2016-Nov-29 22:33N 35°31' E 139°45'0 0.0
2016-Nov-29 21:33N 35°31' E 139°45'0 0.0
2016-Nov-29 20:33N 35°31' E 139°45'0 0.0
2016-Nov-29 19:33N 35°31' E 139°45'0 0.0
2016-Nov-29 18:33N 35°31' E 139°45'0 0.0
2016-Nov-29 17:33N 35°31' E 139°45'0 0.0
2016-Nov-29 16:33N 35°31' E 139°45'0 0.0
2016-Nov-29 15:33N 35°31' E 139°45'0 0.0
2016-Nov-29 14:33N 35°31' E 139°45'0 0.0
2016-Nov-29 13:33N 35°31' E 139°45'0 0.0
2016-Nov-29 12:33N 35°31' E 139°45'0 0.0
2016-Nov-29 11:33N 35°31' E 139°45'0 0.0
2016-Nov-29 10:33N 35°31' E 139°45'0 0.0
2016-Nov-29 09:33N 35°31' E 139°45'0 0.0
2016-Nov-29 08:33N 35°31' E 139°45'0 0.0
2016-Nov-29 07:33N 35°31' E 139°45'0 0.0
2016-Nov-29 06:33N 35°31' E 139°45'0 0.0
2016-Nov-29 05:33N 35°31' E 139°45'0 0.0
2016-Nov-29 04:33N 35°31' E 139°45'0 0.0
2016-Nov-29 03:33N 35°31' E 139°45'0 0.0
2016-Nov-29 02:33N 35°31' E 139°45'0 0.0
2016-Nov-29 01:33N 35°31' E 139°45'0 0.0
2016-Nov-29 00:33N 35°31' E 139°45'0 0.0
2016-Nov-28 23:33N 35°31' E 139°45'0 0.0
2016-Nov-28 22:33N 35°31' E 139°45'0 0.0
2016-Nov-28 21:33N 35°31' E 139°45'0 0.0
2016-Nov-28 20:33N 35°31' E 139°45'0 0.0
2016-Nov-28 19:33N 35°31' E 139°45'0 0.0
2016-Nov-28 18:33N 35°31' E 139°45'0 0.0
2016-Nov-28 17:33N 35°31' E 139°45'0 0.0
2016-Nov-28 16:33N 35°31' E 139°45'0 0.0
2016-Nov-28 15:33N 35°31' E 139°45'0 0.0
2016-Nov-28 14:33N 35°31' E 139°45'0 0.0
2016-Nov-28 13:33N 35°31' E 139°45'0 0.0
2016-Nov-28 12:33N 35°31' E 139°45'0 0.0
2016-Nov-28 11:33N 35°31' E 139°45'0 0.0
2016-Nov-28 10:33N 35°31' E 139°45'0 0.0
2016-Nov-28 09:33N 35°31' E 139°45'0 0.0
2016-Nov-28 08:33N 35°31' E 139°45'3 2.8
2016-Nov-28 07:33N 35°29' E 139°42'2 1.7
2016-Nov-28 06:33N 35°29' E 139°40'0 0.0
2016-Nov-28 05:33N 35°29' E 139°40'0 0.0
2016-Nov-28 04:33N 35°29' E 139°40'1 0.5
2016-Nov-28 03:34N 35°29' E 139°40'3 3.2
2016-Nov-28 02:33N 35°26' E 139°43'0 0.0
2016-Nov-28 01:33N 35°26' E 139°43'0 0.0
2016-Nov-28 00:33N 35°26' E 139°43'0 0.0
2016-Nov-27 23:33N 35°26' E 139°43'0 0.0
2016-Nov-27 22:33N 35°26' E 139°43'0 0.0
2016-Nov-27 21:33N 35°26' E 139°43'0 0.0
2016-Nov-27 20:33N 35°26' E 139°43'0 0.1
2016-Nov-27 19:33N 35°26' E 139°43'9 8.9
2016-Nov-27 18:33N 35°18' E 139°45'243 7.8
2016-Nov-26 11:31N 34°06' E 135°02'1010.4
2016-Nov-26 10:32N 34°16' E 135°03'10 9.9
2016-Nov-26 09:32N 34°25' E 135°09'1010.1
2016-Nov-26 08:33N 34°33' E 135°16'1010.1
2016-Nov-26 07:33N 34°41' E 135°23'2 1.6
2016-Nov-26 06:33N 34°42' E 135°24'0 0.0
2016-Nov-26 05:33N 34°42' E 135°24'0 0.0
2016-Nov-26 04:33N 34°42' E 135°24'0 0.0
2016-Nov-26 03:33N 34°42' E 135°24'0 0.0
2016-Nov-26 02:33N 34°42' E 135°24'0 0.0
2016-Nov-26 01:33N 34°42' E 135°24'0 0.0
2016-Nov-26 00:33N 34°42' E 135°24'0 0.0
2016-Nov-25 23:33N 34°42' E 135°24'3 2.9
2016-Nov-25 22:33N 34°41' E 135°21'7 7.4
2016-Nov-25 21:33N 34°41' E 135°12'0 0.0
2016-Nov-25 20:33N 34°41' E 135°12'0 0.0
2016-Nov-25 19:33N 34°41' E 135°12'0 0.0
2016-Nov-25 18:33N 34°41' E 135°12'0 0.0
2016-Nov-25 17:33N 34°41' E 135°12'0 0.0
2016-Nov-25 16:33N 34°41' E 135°12'0 0.0
2016-Nov-25 15:33N 34°41' E 135°12'0 0.0
2016-Nov-25 14:33N 34°41' E 135°12'0 0.0
2016-Nov-25 13:33N 34°41' E 135°12'0 0.0
2016-Nov-25 12:33N 34°41' E 135°12'0 0.0
2016-Nov-25 11:33N 34°41' E 135°12'0 0.1
2016-Nov-25 10:33N 34°41' E 135°12'6 5.9
2016-Nov-25 09:33N 34°36' E 135°15'1111.1
2016-Nov-25 08:33N 34°26' E 135°08'1511.4
2016-Nov-25 07:12N 34°13' E 134°58'  

Dump ship's entire track history